sensor_id;sensor_type;location;lat;lon;timestamp;P1;durP1;ratioP1;P2;durP2;ratioP2
56830;SDS011;42713;42.676;23.352;2022-11-20T00:01:42;9.98;;;2.90;;
56830;SDS011;42713;42.676;23.352;2022-11-20T00:04:08;9.38;;;4.05;;
56830;SDS011;42713;42.676;23.352;2022-11-20T00:06:35;11.75;;;4.22;;
56830;SDS011;42713;42.676;23.352;2022-11-20T00:09:00;12.20;;;4.70;;
56830;SDS011;42713;42.676;23.352;2022-11-20T00:11:27;13.70;;;5.03;;
56830;SDS011;42713;42.676;23.352;2022-11-20T00:13:55;9.45;;;4.90;;
56830;SDS011;42713;42.676;23.352;2022-11-20T00:16:25;14.10;;;5.85;;
56830;SDS011;42713;42.676;23.352;2022-11-20T00:18:52;12.27;;;6.22;;
56830;SDS011;42713;42.676;23.352;2022-11-20T00:21:19;12.18;;;4.07;;
56830;SDS011;42713;42.676;23.352;2022-11-20T00:23:47;13.40;;;5.20;;
56830;SDS011;42713;42.676;23.352;2022-11-20T00:26:13;12.25;;;4.97;;
56830;SDS011;42713;42.676;23.352;2022-11-20T00:28:40;11.90;;;5.55;;
56830;SDS011;42713;42.676;23.352;2022-11-20T00:31:08;14.05;;;5.65;;
56830;SDS011;42713;42.676;23.352;2022-11-20T00:33:35;11.85;;;5.53;;
56830;SDS011;42713;42.676;23.352;2022-11-20T00:36:05;12.50;;;4.65;;
56830;SDS011;42713;42.676;23.352;2022-11-20T00:38:32;8.52;;;3.30;;
56830;SDS011;42713;42.676;23.352;2022-11-20T00:41:01;8.68;;;3.40;;
56830;SDS011;42713;42.676;23.352;2022-11-20T00:45:58;11.10;;;3.60;;
56830;SDS011;42713;42.676;23.352;2022-11-20T00:48:24;9.98;;;4.40;;
56830;SDS011;42713;42.676;23.352;2022-11-20T00:50:50;9.90;;;4.13;;
56830;SDS011;42713;42.676;23.352;2022-11-20T00:53:16;7.63;;;3.53;;
56830;SDS011;42713;42.676;23.352;2022-11-20T00:55:41;9.57;;;3.50;;
56830;SDS011;42713;42.676;23.352;2022-11-20T00:58:06;8.45;;;2.72;;
56830;SDS011;42713;42.676;23.352;2022-11-20T01:00:32;7.07;;;2.25;;
56830;SDS011;42713;42.676;23.352;2022-11-20T01:02:57;9.02;;;2.83;;
56830;SDS011;42713;42.676;23.352;2022-11-20T01:05:23;8.45;;;1.90;;
56830;SDS011;42713;42.676;23.352;2022-11-20T01:07:48;9.30;;;2.20;;
56830;SDS011;42713;42.676;23.352;2022-11-20T01:10:14;8.20;;;2.20;;
56830;SDS011;42713;42.676;23.352;2022-11-20T01:12:39;6.18;;;1.75;;
56830;SDS011;42713;42.676;23.352;2022-11-20T01:15:04;5.95;;;1.75;;
56830;SDS011;42713;42.676;23.352;2022-11-20T01:17:30;7.03;;;1.70;;
56830;SDS011;42713;42.676;23.352;2022-11-20T01:19:56;7.20;;;1.38;;
56830;SDS011;42713;42.676;23.352;2022-11-20T01:22:22;5.80;;;1.50;;
56830;SDS011;42713;42.676;23.352;2022-11-20T01:24:47;5.88;;;1.33;;
56830;SDS011;42713;42.676;23.352;2022-11-20T01:27:13;5.97;;;1.52;;
56830;SDS011;42713;42.676;23.352;2022-11-20T01:29:38;7.10;;;1.48;;
56830;SDS011;42713;42.676;23.352;2022-11-20T01:32:04;6.30;;;1.27;;
56830;SDS011;42713;42.676;23.352;2022-11-20T01:34:29;5.32;;;1.55;;
56830;SDS011;42713;42.676;23.352;2022-11-20T01:36:55;4.82;;;1.70;;
56830;SDS011;42713;42.676;23.352;2022-11-20T01:39:21;8.30;;;1.95;;
56830;SDS011;42713;42.676;23.352;2022-11-20T01:41:49;5.22;;;1.90;;
56830;SDS011;42713;42.676;23.352;2022-11-20T01:47:35;6.40;;;1.95;;
56830;SDS011;42713;42.676;23.352;2022-11-20T01:50:18;13.32;;;2.55;;
56830;SDS011;42713;42.676;23.352;2022-11-20T01:52:52;8.13;;;2.38;;
56830;SDS011;42713;42.676;23.352;2022-11-20T01:55:23;5.35;;;1.63;;
56830;SDS011;42713;42.676;23.352;2022-11-20T01:57:53;5.32;;;1.40;;
56830;SDS011;42713;42.676;23.352;2022-11-20T02:00:19;3.72;;;1.20;;
56830;SDS011;42713;42.676;23.352;2022-11-20T02:02:47;3.05;;;1.15;;
56830;SDS011;42713;42.676;23.352;2022-11-20T02:05:22;4.53;;;1.30;;
56830;SDS011;42713;42.676;23.352;2022-11-20T02:07:48;6.00;;;1.80;;
56830;SDS011;42713;42.676;23.352;2022-11-20T02:10:15;7.30;;;1.75;;
56830;SDS011;42713;42.676;23.352;2022-11-20T02:12:41;6.63;;;1.83;;
56830;SDS011;42713;42.676;23.352;2022-11-20T02:15:25;5.07;;;1.88;;
56830;SDS011;42713;42.676;23.352;2022-11-20T02:17:51;9.63;;;1.90;;
56830;SDS011;42713;42.676;23.352;2022-11-20T02:20:16;10.52;;;2.30;;
56830;SDS011;42713;42.676;23.352;2022-11-20T02:22:46;6.13;;;1.45;;
56830;SDS011;42713;42.676;23.352;2022-11-20T02:25:15;8.05;;;1.40;;
56830;SDS011;42713;42.676;23.352;2022-11-20T02:27:42;8.52;;;2.13;;
56830;SDS011;42713;42.676;23.352;2022-11-20T02:30:08;5.97;;;1.50;;
56830;SDS011;42713;42.676;23.352;2022-11-20T02:32:36;6.90;;;1.50;;
56830;SDS011;42713;42.676;23.352;2022-11-20T02:37:43;5.25;;;1.67;;
56830;SDS011;42713;42.676;23.352;2022-11-20T02:40:10;8.40;;;1.77;;
56830;SDS011;42713;42.676;23.352;2022-11-20T02:42:36;6.53;;;1.70;;
56830;SDS011;42713;42.676;23.352;2022-11-20T02:45:02;6.88;;;1.38;;
56830;SDS011;42713;42.676;23.352;2022-11-20T02:47:28;4.03;;;1.10;;
56830;SDS011;42713;42.676;23.352;2022-11-20T02:49:54;2.72;;;1.23;;
56830;SDS011;42713;42.676;23.352;2022-11-20T02:52:20;4.18;;;1.00;;
56830;SDS011;42713;42.676;23.352;2022-11-20T02:54:45;5.35;;;0.90;;
56830;SDS011;42713;42.676;23.352;2022-11-20T02:57:11;4.45;;;0.93;;
56830;SDS011;42713;42.676;23.352;2022-11-20T02:59:36;5.38;;;0.90;;
56830;SDS011;42713;42.676;23.352;2022-11-20T03:02:01;4.07;;;1.10;;
56830;SDS011;42713;42.676;23.352;2022-11-20T03:04:27;5.25;;;1.00;;
56830;SDS011;42713;42.676;23.352;2022-11-20T03:06:52;5.25;;;1.20;;
56830;SDS011;42713;42.676;23.352;2022-11-20T03:09:18;4.82;;;1.00;;
56830;SDS011;42713;42.676;23.352;2022-11-20T03:11:43;7.35;;;1.08;;
56830;SDS011;42713;42.676;23.352;2022-11-20T03:14:09;7.82;;;1.23;;
56830;SDS011;42713;42.676;23.352;2022-11-20T03:16:34;4.35;;;1.00;;
56830;SDS011;42713;42.676;23.352;2022-11-20T03:19:00;5.10;;;1.05;;
56830;SDS011;42713;42.676;23.352;2022-11-20T03:21:25;5.85;;;1.00;;
56830;SDS011;42713;42.676;23.352;2022-11-20T03:23:52;5.80;;;1.92;;
56830;SDS011;42713;42.676;23.352;2022-11-20T03:26:22;3.65;;;1.00;;
56830;SDS011;42713;42.676;23.352;2022-11-20T03:28:51;4.65;;;0.75;;
56830;SDS011;42713;42.676;23.352;2022-11-20T03:31:19;4.38;;;1.00;;
56830;SDS011;42713;42.676;23.352;2022-11-20T03:33:56;2.15;;;0.82;;
56830;SDS011;42713;42.676;23.352;2022-11-20T03:36:22;3.00;;;0.88;;
56830;SDS011;42713;42.676;23.352;2022-11-20T03:38:48;2.70;;;0.77;;
56830;SDS011;42713;42.676;23.352;2022-11-20T03:41:16;3.90;;;0.90;;
56830;SDS011;42713;42.676;23.352;2022-11-20T03:43:47;5.68;;;0.98;;
56830;SDS011;42713;42.676;23.352;2022-11-20T03:46:33;5.03;;;1.10;;
56830;SDS011;42713;42.676;23.352;2022-11-20T03:48:58;5.72;;;1.17;;
56830;SDS011;42713;42.676;23.352;2022-11-20T03:51:28;3.97;;;1.08;;
56830;SDS011;42713;42.676;23.352;2022-11-20T03:53:56;6.07;;;1.30;;
56830;SDS011;42713;42.676;23.352;2022-11-20T03:56:24;4.43;;;1.00;;
56830;SDS011;42713;42.676;23.352;2022-11-20T03:58:52;4.07;;;0.88;;
56830;SDS011;42713;42.676;23.352;2022-11-20T04:01:18;4.45;;;1.15;;
56830;SDS011;42713;42.676;23.352;2022-11-20T04:03:46;4.90;;;1.10;;
56830;SDS011;42713;42.676;23.352;2022-11-20T04:06:18;7.30;;;1.00;;
56830;SDS011;42713;42.676;23.352;2022-11-20T04:08:45;6.75;;;1.00;;
56830;SDS011;42713;42.676;23.352;2022-11-20T04:11:12;6.00;;;0.90;;
56830;SDS011;42713;42.676;23.352;2022-11-20T04:13:49;4.95;;;1.20;;
56830;SDS011;42713;42.676;23.352;2022-11-20T04:16:16;3.22;;;0.90;;
56830;SDS011;42713;42.676;23.352;2022-11-20T04:18:42;4.05;;;0.80;;
56830;SDS011;42713;42.676;23.352;2022-11-20T04:21:08;2.88;;;0.90;;
56830;SDS011;42713;42.676;23.352;2022-11-20T04:23:34;5.57;;;1.30;;
56830;SDS011;42713;42.676;23.352;2022-11-20T04:26:07;4.80;;;1.00;;
56830;SDS011;42713;42.676;23.352;2022-11-20T04:28:35;5.93;;;1.02;;
56830;SDS011;42713;42.676;23.352;2022-11-20T04:31:07;7.63;;;1.20;;
56830;SDS011;42713;42.676;23.352;2022-11-20T04:33:35;3.08;;;0.90;;
56830;SDS011;42713;42.676;23.352;2022-11-20T04:36:09;4.20;;;1.00;;
56830;SDS011;42713;42.676;23.352;2022-11-20T04:38:37;7.28;;;1.02;;
56830;SDS011;42713;42.676;23.352;2022-11-20T04:41:04;9.15;;;0.90;;
56830;SDS011;42713;42.676;23.352;2022-11-20T04:43:31;3.50;;;1.00;;
56830;SDS011;42713;42.676;23.352;2022-11-20T04:45:57;8.00;;;1.10;;
56830;SDS011;42713;42.676;23.352;2022-11-20T04:48:23;5.25;;;1.00;;
56830;SDS011;42713;42.676;23.352;2022-11-20T04:50:50;5.05;;;1.05;;
56830;SDS011;42713;42.676;23.352;2022-11-20T04:53:16;2.33;;;0.70;;
56830;SDS011;42713;42.676;23.352;2022-11-20T04:55:42;3.80;;;0.65;;
56830;SDS011;42713;42.676;23.352;2022-11-20T04:58:08;7.00;;;1.13;;
56830;SDS011;42713;42.676;23.352;2022-11-20T05:00:33;4.70;;;0.93;;
56830;SDS011;42713;42.676;23.352;2022-11-20T05:02:59;5.75;;;1.10;;
56830;SDS011;42713;42.676;23.352;2022-11-20T05:05:25;4.10;;;1.00;;
56830;SDS011;42713;42.676;23.352;2022-11-20T05:07:51;3.58;;;1.30;;
56830;SDS011;42713;42.676;23.352;2022-11-20T05:10:16;3.67;;;1.20;;
56830;SDS011;42713;42.676;23.352;2022-11-20T05:12:42;4.70;;;0.88;;
56830;SDS011;42713;42.676;23.352;2022-11-20T05:15:07;3.72;;;1.05;;
56830;SDS011;42713;42.676;23.352;2022-11-20T05:17:33;5.97;;;0.90;;
56830;SDS011;42713;42.676;23.352;2022-11-20T05:19:58;5.75;;;0.90;;
56830;SDS011;42713;42.676;23.352;2022-11-20T05:22:24;4.03;;;0.90;;
56830;SDS011;42713;42.676;23.352;2022-11-20T05:24:49;5.90;;;0.75;;
56830;SDS011;42713;42.676;23.352;2022-11-20T05:27:14;4.28;;;0.90;;
56830;SDS011;42713;42.676;23.352;2022-11-20T05:29:40;7.10;;;1.20;;
56830;SDS011;42713;42.676;23.352;2022-11-20T05:32:05;5.53;;;1.77;;
56830;SDS011;42713;42.676;23.352;2022-11-20T05:34:33;3.78;;;1.30;;
56830;SDS011;42713;42.676;23.352;2022-11-20T05:36:59;8.57;;;1.80;;
56830;SDS011;42713;42.676;23.352;2022-11-20T05:39:24;5.40;;;1.10;;
56830;SDS011;42713;42.676;23.352;2022-11-20T05:41:50;6.88;;;1.88;;
56830;SDS011;42713;42.676;23.352;2022-11-20T05:44:35;6.03;;;1.90;;
56830;SDS011;42713;42.676;23.352;2022-11-20T05:47:00;6.85;;;1.63;;
56830;SDS011;42713;42.676;23.352;2022-11-20T05:49:26;9.45;;;2.58;;
56830;SDS011;42713;42.676;23.352;2022-11-20T05:51:52;9.95;;;3.83;;
56830;SDS011;42713;42.676;23.352;2022-11-20T05:54:17;11.25;;;2.25;;
56830;SDS011;42713;42.676;23.352;2022-11-20T05:56:42;6.13;;;1.45;;
56830;SDS011;42713;42.676;23.352;2022-11-20T05:59:08;6.32;;;1.30;;
56830;SDS011;42713;42.676;23.352;2022-11-20T06:01:33;7.28;;;1.92;;
56830;SDS011;42713;42.676;23.352;2022-11-20T06:04:00;4.95;;;1.42;;
56830;SDS011;42713;42.676;23.352;2022-11-20T06:06:26;7.45;;;1.75;;
56830;SDS011;42713;42.676;23.352;2022-11-20T06:08:51;4.97;;;1.40;;
56830;SDS011;42713;42.676;23.352;2022-11-20T06:11:17;7.60;;;1.70;;
56830;SDS011;42713;42.676;23.352;2022-11-20T06:13:43;7.50;;;1.63;;
56830;SDS011;42713;42.676;23.352;2022-11-20T06:16:10;9.65;;;1.70;;
56830;SDS011;42713;42.676;23.352;2022-11-20T06:18:38;9.45;;;1.65;;
56830;SDS011;42713;42.676;23.352;2022-11-20T06:21:05;8.10;;;1.60;;
56830;SDS011;42713;42.676;23.352;2022-11-20T06:23:33;6.43;;;1.30;;
56830;SDS011;42713;42.676;23.352;2022-11-20T06:26:03;4.35;;;1.20;;
56830;SDS011;42713;42.676;23.352;2022-11-20T06:28:30;7.13;;;1.38;;
56830;SDS011;42713;42.676;23.352;2022-11-20T06:30:57;9.40;;;1.50;;
56830;SDS011;42713;42.676;23.352;2022-11-20T06:33:22;7.90;;;1.83;;
56830;SDS011;42713;42.676;23.352;2022-11-20T06:35:48;5.45;;;1.30;;
56830;SDS011;42713;42.676;23.352;2022-11-20T06:38:13;6.80;;;1.63;;
56830;SDS011;42713;42.676;23.352;2022-11-20T06:40:42;9.75;;;2.67;;
56830;SDS011;42713;42.676;23.352;2022-11-20T06:43:10;9.93;;;2.05;;
56830;SDS011;42713;42.676;23.352;2022-11-20T06:45:36;18.05;;;3.30;;
56830;SDS011;42713;42.676;23.352;2022-11-20T06:48:02;7.20;;;2.20;;
56830;SDS011;42713;42.676;23.352;2022-11-20T06:50:28;6.07;;;1.55;;
56830;SDS011;42713;42.676;23.352;2022-11-20T06:52:54;9.57;;;1.60;;
56830;SDS011;42713;42.676;23.352;2022-11-20T06:55:19;8.85;;;1.88;;
56830;SDS011;42713;42.676;23.352;2022-11-20T06:57:45;6.07;;;1.60;;
56830;SDS011;42713;42.676;23.352;2022-11-20T07:00:10;5.68;;;1.10;;
56830;SDS011;42713;42.676;23.352;2022-11-20T07:02:37;10.27;;;1.55;;
56830;SDS011;42713;42.676;23.352;2022-11-20T07:05:02;6.97;;;1.50;;
56830;SDS011;42713;42.676;23.352;2022-11-20T07:07:28;6.53;;;1.63;;
56830;SDS011;42713;42.676;23.352;2022-11-20T07:09:53;7.90;;;1.63;;
56830;SDS011;42713;42.676;23.352;2022-11-20T07:12:18;8.95;;;1.40;;
56830;SDS011;42713;42.676;23.352;2022-11-20T07:14:44;9.07;;;1.80;;
56830;SDS011;42713;42.676;23.352;2022-11-20T07:17:09;5.85;;;1.42;;
56830;SDS011;42713;42.676;23.352;2022-11-20T07:19:35;7.95;;;1.67;;
56830;SDS011;42713;42.676;23.352;2022-11-20T07:22:00;4.75;;;1.10;;
56830;SDS011;42713;42.676;23.352;2022-11-20T07:24:26;6.60;;;1.13;;
56830;SDS011;42713;42.676;23.352;2022-11-20T07:26:51;7.88;;;1.25;;
56830;SDS011;42713;42.676;23.352;2022-11-20T07:29:16;8.05;;;1.30;;
56830;SDS011;42713;42.676;23.352;2022-11-20T07:31:42;13.80;;;2.00;;
56830;SDS011;42713;42.676;23.352;2022-11-20T07:34:08;7.45;;;1.40;;
56830;SDS011;42713;42.676;23.352;2022-11-20T07:36:34;8.82;;;1.98;;
56830;SDS011;42713;42.676;23.352;2022-11-20T07:38:59;5.95;;;1.30;;
56830;SDS011;42713;42.676;23.352;2022-11-20T07:41:25;7.90;;;1.40;;
56830;SDS011;42713;42.676;23.352;2022-11-20T07:43:50;4.60;;;1.42;;
56830;SDS011;42713;42.676;23.352;2022-11-20T07:46:16;9.32;;;1.30;;
56830;SDS011;42713;42.676;23.352;2022-11-20T07:48:41;8.02;;;1.50;;
56830;SDS011;42713;42.676;23.352;2022-11-20T07:51:07;5.60;;;1.35;;
56830;SDS011;42713;42.676;23.352;2022-11-20T07:53:32;9.85;;;1.50;;
56830;SDS011;42713;42.676;23.352;2022-11-20T07:56:02;8.73;;;1.58;;
56830;SDS011;42713;42.676;23.352;2022-11-20T07:58:31;12.70;;;2.58;;
56830;SDS011;42713;42.676;23.352;2022-11-20T08:01:06;6.57;;;1.73;;
56830;SDS011;42713;42.676;23.352;2022-11-20T08:03:32;5.53;;;1.50;;
56830;SDS011;42713;42.676;23.352;2022-11-20T08:05:59;6.65;;;1.50;;
56830;SDS011;42713;42.676;23.352;2022-11-20T08:08:28;5.15;;;1.38;;
56830;SDS011;42713;42.676;23.352;2022-11-20T08:10:53;6.18;;;1.13;;
56830;SDS011;42713;42.676;23.352;2022-11-20T08:13:39;6.78;;;1.33;;
56830;SDS011;42713;42.676;23.352;2022-11-20T08:16:23;10.10;;;2.05;;
56830;SDS011;42713;42.676;23.352;2022-11-20T08:18:48;6.03;;;1.58;;
56830;SDS011;42713;42.676;23.352;2022-11-20T08:21:14;6.28;;;1.50;;
56830;SDS011;42713;42.676;23.352;2022-11-20T08:23:40;9.15;;;1.52;;
56830;SDS011;42713;42.676;23.352;2022-11-20T08:26:05;7.65;;;1.30;;
56830;SDS011;42713;42.676;23.352;2022-11-20T08:28:31;9.27;;;1.67;;
56830;SDS011;42713;42.676;23.352;2022-11-20T08:31:00;12.13;;;3.28;;
56830;SDS011;42713;42.676;23.352;2022-11-20T08:33:27;14.73;;;2.70;;
56830;SDS011;42713;42.676;23.352;2022-11-20T08:35:52;12.60;;;1.90;;
56830;SDS011;42713;42.676;23.352;2022-11-20T08:38:18;9.50;;;1.85;;
56830;SDS011;42713;42.676;23.352;2022-11-20T08:40:43;7.68;;;1.40;;
56830;SDS011;42713;42.676;23.352;2022-11-20T08:43:31;10.32;;;1.52;;
56830;SDS011;42713;42.676;23.352;2022-11-20T08:45:57;6.28;;;1.20;;
56830;SDS011;42713;42.676;23.352;2022-11-20T08:48:22;9.60;;;1.75;;
56830;SDS011;42713;42.676;23.352;2022-11-20T08:50:49;11.88;;;1.65;;
56830;SDS011;42713;42.676;23.352;2022-11-20T08:53:14;7.38;;;1.80;;
56830;SDS011;42713;42.676;23.352;2022-11-20T08:55:40;8.10;;;1.67;;
56830;SDS011;42713;42.676;23.352;2022-11-20T08:58:05;7.45;;;1.67;;
56830;SDS011;42713;42.676;23.352;2022-11-20T09:00:32;9.57;;;2.75;;
56830;SDS011;42713;42.676;23.352;2022-11-20T09:02:58;14.38;;;4.75;;
56830;SDS011;42713;42.676;23.352;2022-11-20T09:05:25;10.77;;;2.67;;
56830;SDS011;42713;42.676;23.352;2022-11-20T09:07:51;10.57;;;2.47;;
56830;SDS011;42713;42.676;23.352;2022-11-20T09:10:16;11.60;;;2.25;;
56830;SDS011;42713;42.676;23.352;2022-11-20T09:12:42;6.50;;;1.70;;
56830;SDS011;42713;42.676;23.352;2022-11-20T09:15:07;7.68;;;2.25;;
56830;SDS011;42713;42.676;23.352;2022-11-20T09:17:33;7.40;;;2.00;;
56830;SDS011;42713;42.676;23.352;2022-11-20T09:19:58;7.93;;;1.98;;
56830;SDS011;42713;42.676;23.352;2022-11-20T09:22:24;12.05;;;2.00;;
56830;SDS011;42713;42.676;23.352;2022-11-20T09:24:49;13.43;;;2.60;;
56830;SDS011;42713;42.676;23.352;2022-11-20T09:27:15;8.50;;;1.92;;
56830;SDS011;42713;42.676;23.352;2022-11-20T09:29:45;9.07;;;1.35;;
56830;SDS011;42713;42.676;23.352;2022-11-20T09:32:10;5.80;;;1.02;;
56830;SDS011;42713;42.676;23.352;2022-11-20T09:34:36;2.15;;;0.60;;
56830;SDS011;42713;42.676;23.352;2022-11-20T09:37:01;4.55;;;1.30;;
56830;SDS011;42713;42.676;23.352;2022-11-20T09:39:27;2.40;;;1.00;;
56830;SDS011;42713;42.676;23.352;2022-11-20T09:41:56;5.32;;;1.55;;
56830;SDS011;42713;42.676;23.352;2022-11-20T09:44:58;3.42;;;0.95;;
56830;SDS011;42713;42.676;23.352;2022-11-20T09:50:42;3.67;;;1.20;;
56830;SDS011;42713;42.676;23.352;2022-11-20T09:53:30;5.82;;;1.40;;
56830;SDS011;42713;42.676;23.352;2022-11-20T09:56:22;6.47;;;1.30;;
56830;SDS011;42713;42.676;23.352;2022-11-20T09:58:49;6.05;;;1.17;;
56830;SDS011;42713;42.676;23.352;2022-11-20T10:01:17;6.85;;;1.38;;
56830;SDS011;42713;42.676;23.352;2022-11-20T10:09:43;5.18;;;1.83;;
56830;SDS011;42713;42.676;23.352;2022-11-20T10:25:47;8.52;;;2.80;;
56830;SDS011;42713;42.676;23.352;2022-11-20T10:31:06;8.77;;;2.28;;
56830;SDS011;42713;42.676;23.352;2022-11-20T10:33:36;10.80;;;2.38;;
56830;SDS011;42713;42.676;23.352;2022-11-20T10:41:37;11.90;;;2.58;;
56830;SDS011;42713;42.676;23.352;2022-11-20T10:47:00;12.30;;;2.53;;
56830;SDS011;42713;42.676;23.352;2022-11-20T10:49:26;13.07;;;2.90;;
56830;SDS011;42713;42.676;23.352;2022-11-20T11:00:11;14.50;;;3.35;;
56830;SDS011;42713;42.676;23.352;2022-11-20T11:02:39;13.65;;;3.10;;
56830;SDS011;42713;42.676;23.352;2022-11-20T11:05:31;10.30;;;3.38;;
56830;SDS011;42713;42.676;23.352;2022-11-20T11:08:14;11.82;;;3.58;;
56830;SDS011;42713;42.676;23.352;2022-11-20T11:10:52;12.75;;;3.67;;
56830;SDS011;42713;42.676;23.352;2022-11-20T11:13:30;15.15;;;3.70;;
56830;SDS011;42713;42.676;23.352;2022-11-20T11:15:57;16.70;;;3.53;;
56830;SDS011;42713;42.676;23.352;2022-11-20T11:18:30;11.10;;;3.45;;
56830;SDS011;42713;42.676;23.352;2022-11-20T11:20:58;9.45;;;1.00;;
56830;SDS011;42713;42.676;23.352;2022-11-20T11:25:58;2.67;;;0.98;;
56830;SDS011;42713;42.676;23.352;2022-11-20T11:28:25;5.95;;;1.83;;
56830;SDS011;42713;42.676;23.352;2022-11-20T11:30:53;6.35;;;1.10;;
56830;SDS011;42713;42.676;23.352;2022-11-20T11:33:23;4.25;;;0.90;;
56830;SDS011;42713;42.676;23.352;2022-11-20T11:35:51;2.22;;;0.82;;
56830;SDS011;42713;42.676;23.352;2022-11-20T11:38:39;4.90;;;1.00;;
56830;SDS011;42713;42.676;23.352;2022-11-20T11:41:09;4.90;;;1.15;;
56830;SDS011;42713;42.676;23.352;2022-11-20T11:43:48;5.20;;;1.00;;
56830;SDS011;42713;42.676;23.352;2022-11-20T11:46:36;3.30;;;0.90;;
56830;SDS011;42713;42.676;23.352;2022-11-20T11:51:39;4.82;;;1.10;;
56830;SDS011;42713;42.676;23.352;2022-11-20T11:57:22;7.72;;;1.65;;
56830;SDS011;42713;42.676;23.352;2022-11-20T12:05:28;8.07;;;1.02;;
56830;SDS011;42713;42.676;23.352;2022-11-20T12:16:03;6.35;;;0.88;;
56830;SDS011;42713;42.676;23.352;2022-11-20T12:18:29;6.03;;;1.17;;
56830;SDS011;42713;42.676;23.352;2022-11-20T12:24:04;1.73;;;0.63;;
56830;SDS011;42713;42.676;23.352;2022-11-20T12:36:00;4.85;;;0.90;;
56830;SDS011;42713;42.676;23.352;2022-11-20T13:07:05;8.73;;;2.40;;
56830;SDS011;42713;42.676;23.352;2022-11-20T13:09:33;9.07;;;2.65;;
56830;SDS011;42713;42.676;23.352;2022-11-20T13:12:06;9.98;;;2.50;;
56830;SDS011;42713;42.676;23.352;2022-11-20T13:17:45;8.73;;;2.30;;
56830;SDS011;42713;42.676;23.352;2022-11-20T13:20:14;9.32;;;2.78;;
56830;SDS011;42713;42.676;23.352;2022-11-20T13:22:45;8.93;;;2.35;;
56830;SDS011;42713;42.676;23.352;2022-11-20T13:27:54;5.90;;;1.90;;
56830;SDS011;42713;42.676;23.352;2022-11-20T13:30:21;8.15;;;1.90;;
56830;SDS011;42713;42.676;23.352;2022-11-20T13:33:06;8.73;;;2.10;;
56830;SDS011;42713;42.676;23.352;2022-11-20T13:35:40;10.55;;;2.65;;
56830;SDS011;42713;42.676;23.352;2022-11-20T13:40:54;10.82;;;2.85;;
56830;SDS011;42713;42.676;23.352;2022-11-20T13:43:34;9.82;;;2.47;;
56830;SDS011;42713;42.676;23.352;2022-11-20T13:46:04;9.45;;;2.50;;
56830;SDS011;42713;42.676;23.352;2022-11-20T13:48:46;8.75;;;2.10;;
56830;SDS011;42713;42.676;23.352;2022-11-20T13:56:11;6.95;;;2.13;;
56830;SDS011;42713;42.676;23.352;2022-11-20T14:01:43;8.68;;;2.22;;
56830;SDS011;42713;42.676;23.352;2022-11-20T14:04:14;10.48;;;2.38;;
56830;SDS011;42713;42.676;23.352;2022-11-20T14:06:44;6.97;;;2.63;;
56830;SDS011;42713;42.676;23.352;2022-11-20T14:09:13;9.38;;;2.33;;
56830;SDS011;42713;42.676;23.352;2022-11-20T14:11:50;10.05;;;2.50;;
56830;SDS011;42713;42.676;23.352;2022-11-20T14:14:17;12.73;;;2.90;;
56830;SDS011;42713;42.676;23.352;2022-11-20T14:16:47;12.20;;;2.53;;
56830;SDS011;42713;42.676;23.352;2022-11-20T14:19:25;11.98;;;3.60;;
56830;SDS011;42713;42.676;23.352;2022-11-20T14:27:37;9.60;;;3.17;;
56830;SDS011;42713;42.676;23.352;2022-11-20T14:30:04;8.90;;;3.10;;
56830;SDS011;42713;42.676;23.352;2022-11-20T14:32:37;12.32;;;4.80;;
56830;SDS011;42713;42.676;23.352;2022-11-20T14:35:10;16.38;;;4.13;;
56830;SDS011;42713;42.676;23.352;2022-11-20T14:37:44;18.42;;;4.10;;
56830;SDS011;42713;42.676;23.352;2022-11-20T14:40:23;10.95;;;3.58;;
56830;SDS011;42713;42.676;23.352;2022-11-20T14:42:51;16.65;;;4.13;;
56830;SDS011;42713;42.676;23.352;2022-11-20T14:45:16;11.80;;;4.60;;
56830;SDS011;42713;42.676;23.352;2022-11-20T14:47:43;11.18;;;4.10;;
56830;SDS011;42713;42.676;23.352;2022-11-20T14:50:18;14.38;;;4.65;;
56830;SDS011;42713;42.676;23.352;2022-11-20T14:52:54;15.27;;;5.10;;
56830;SDS011;42713;42.676;23.352;2022-11-20T14:55:34;12.00;;;3.50;;
56830;SDS011;42713;42.676;23.352;2022-11-20T14:58:03;10.10;;;2.88;;
56830;SDS011;42713;42.676;23.352;2022-11-20T15:00:53;8.52;;;2.80;;
56830;SDS011;42713;42.676;23.352;2022-11-20T15:03:39;7.82;;;2.63;;
56830;SDS011;42713;42.676;23.352;2022-11-20T15:06:06;9.60;;;2.95;;
56830;SDS011;42713;42.676;23.352;2022-11-20T15:08:35;8.38;;;2.38;;
56830;SDS011;42713;42.676;23.352;2022-11-20T15:11:01;8.20;;;2.63;;
56830;SDS011;42713;42.676;23.352;2022-11-20T15:13:37;6.95;;;2.53;;
56830;SDS011;42713;42.676;23.352;2022-11-20T15:16:08;10.98;;;2.72;;
56830;SDS011;42713;42.676;23.352;2022-11-20T15:18:43;8.50;;;2.28;;
56830;SDS011;42713;42.676;23.352;2022-11-20T15:21:13;8.32;;;2.05;;
56830;SDS011;42713;42.676;23.352;2022-11-20T15:23:40;9.70;;;2.58;;
56830;SDS011;42713;42.676;23.352;2022-11-20T15:26:06;7.05;;;2.20;;
56830;SDS011;42713;42.676;23.352;2022-11-20T15:28:34;6.88;;;2.38;;
56830;SDS011;42713;42.676;23.352;2022-11-20T15:31:02;5.93;;;1.90;;
56830;SDS011;42713;42.676;23.352;2022-11-20T15:33:29;7.95;;;2.53;;
56830;SDS011;42713;42.676;23.352;2022-11-20T15:35:56;7.93;;;1.98;;
56830;SDS011;42713;42.676;23.352;2022-11-20T15:38:21;6.75;;;2.20;;
56830;SDS011;42713;42.676;23.352;2022-11-20T15:40:47;10.00;;;2.30;;
56830;SDS011;42713;42.676;23.352;2022-11-20T15:43:13;7.88;;;2.80;;
56830;SDS011;42713;42.676;23.352;2022-11-20T15:45:45;8.10;;;2.53;;
56830;SDS011;42713;42.676;23.352;2022-11-20T15:48:18;8.27;;;2.75;;
56830;SDS011;42713;42.676;23.352;2022-11-20T15:53:14;8.85;;;2.80;;
56830;SDS011;42713;42.676;23.352;2022-11-20T15:55:39;6.88;;;2.50;;
56830;SDS011;42713;42.676;23.352;2022-11-20T15:58:05;6.32;;;2.20;;
56830;SDS011;42713;42.676;23.352;2022-11-20T16:00:30;5.43;;;1.75;;
56830;SDS011;42713;42.676;23.352;2022-11-20T16:02:56;7.13;;;1.70;;
56830;SDS011;42713;42.676;23.352;2022-11-20T16:05:21;5.97;;;1.75;;
56830;SDS011;42713;42.676;23.352;2022-11-20T16:07:48;5.65;;;1.40;;
56830;SDS011;42713;42.676;23.352;2022-11-20T16:10:15;5.13;;;1.40;;
56830;SDS011;42713;42.676;23.352;2022-11-20T16:12:40;6.95;;;1.85;;
56830;SDS011;42713;42.676;23.352;2022-11-20T16:15:24;5.55;;;1.45;;
56830;SDS011;42713;42.676;23.352;2022-11-20T16:18:09;5.72;;;1.48;;
56830;SDS011;42713;42.676;23.352;2022-11-20T16:20:36;6.75;;;1.83;;
56830;SDS011;42713;42.676;23.352;2022-11-20T16:23:01;6.68;;;2.13;;
56830;SDS011;42713;42.676;23.352;2022-11-20T16:25:27;4.53;;;1.58;;
56830;SDS011;42713;42.676;23.352;2022-11-20T16:27:52;7.10;;;1.80;;
56830;SDS011;42713;42.676;23.352;2022-11-20T16:30:18;7.47;;;2.50;;
56830;SDS011;42713;42.676;23.352;2022-11-20T16:32:43;8.63;;;2.13;;
56830;SDS011;42713;42.676;23.352;2022-11-20T16:35:09;8.77;;;2.28;;
56830;SDS011;42713;42.676;23.352;2022-11-20T16:37:34;8.60;;;2.00;;
56830;SDS011;42713;42.676;23.352;2022-11-20T16:39:59;6.40;;;1.98;;
56830;SDS011;42713;42.676;23.352;2022-11-20T16:42:25;9.63;;;2.05;;
56830;SDS011;42713;42.676;23.352;2022-11-20T16:44:51;5.60;;;1.50;;
56830;SDS011;42713;42.676;23.352;2022-11-20T16:47:18;8.57;;;1.70;;
56830;SDS011;42713;42.676;23.352;2022-11-20T16:49:44;6.57;;;1.80;;
56830;SDS011;42713;42.676;23.352;2022-11-20T16:52:09;9.38;;;1.75;;
56830;SDS011;42713;42.676;23.352;2022-11-20T16:54:35;6.45;;;2.20;;
56830;SDS011;42713;42.676;23.352;2022-11-20T16:57:00;5.82;;;2.10;;
56830;SDS011;42713;42.676;23.352;2022-11-20T16:59:25;7.68;;;1.80;;